Portada
METAR-TAF:

METAR-TAF

Aeroports :

Padang, Indonèsia

latitud: 00-47-12S, longitud: 100-16-50E, altitud: 5 m

METAR: manca

Hora: 15:24 (08:24 UTC)

Pronòstic

L'informe es va fer fa 3 hores i 24 minuts, a les 05:00 UTC
Pronòstic vàlid del 23 a les 06 UTC al 24 a les 06 UTC
Vent 7 kt del Sud
Visibilitat: 9000 m
Núvols disperses a una alçada de 2000 ft
Temporalment
l' 23 a les 20 UTC al 23 a les 23 UTC
Vent 3 kt del Nord-Est
Visibilitat: 4000 m
boirina

TAF: WIEE 230500Z 2306/2406 19007KT 9000 SCT020 TEMPO 2320/2323 05003KT 4000 BR

Observacions i pronòstics meteorològics de més de 4000 aeroports (METAR i TAF).

Les estacions disponibles són els punts grocs i vermells al mapa.

Posi el ratolí al punt desitjat per veure el nom de l'estació.

Feu clic per veure les observacions i els pronòstics meteorològics.

Per canviar el mapa: feu clic els botons verds amb una creu de color negre per apropar; al botó verd amb un guió per allunyar la imatge; o en les fletxes verdes per a mapes adjacents.


METAR-TAF: